createdAt,value
2023-02-04T00:01:07.965Z,6.10
2023-02-04T00:03:34.633Z,6.10
2023-02-04T00:06:01.318Z,6.10
2023-02-04T00:08:28.062Z,6.10
2023-02-04T00:10:54.730Z,6.10
2023-02-04T00:13:21.493Z,6.10
2023-02-04T00:15:48.161Z,6.10
2023-02-04T00:18:14.872Z,6.10
2023-02-04T00:20:41.538Z,6.10
2023-02-04T00:23:08.198Z,6.10
2023-02-04T00:25:34.830Z,6.10
2023-02-04T00:28:01.555Z,6.60
2023-02-04T00:30:28.491Z,7.30
2023-02-04T00:32:56.623Z,6.10
2023-02-04T00:35:23.818Z,6.10
2023-02-04T00:37:50.665Z,6.10
2023-02-04T00:40:17.827Z,6.00
2023-02-04T00:42:44.532Z,6.00
2023-02-04T00:45:11.385Z,6.00
2023-02-04T00:47:38.240Z,6.00
2023-02-04T00:50:05.288Z,5.90
2023-02-04T00:52:32.008Z,5.90
2023-02-04T00:54:58.747Z,5.90
2023-02-04T00:57:25.421Z,5.90
2023-02-04T00:59:52.049Z,6.00
2023-02-04T01:02:18.794Z,5.90
2023-02-04T01:04:45.581Z,5.80
2023-02-04T01:07:12.248Z,5.80
2023-02-04T01:09:38.896Z,6.00
2023-02-04T01:12:05.635Z,5.80
2023-02-04T01:14:32.284Z,7.50
2023-02-04T01:16:59.284Z,5.80
2023-02-04T01:19:25.947Z,5.80
2023-02-04T01:21:52.737Z,5.80
2023-02-04T01:24:19.333Z,5.80
2023-02-04T01:26:45.989Z,5.90
2023-02-04T01:29:12.715Z,5.90
2023-02-04T01:31:39.406Z,5.90
2023-02-04T01:34:07.426Z,5.90
2023-02-04T01:36:34.081Z,5.90
2023-02-04T01:39:01.062Z,5.90
2023-02-04T01:41:27.952Z,5.80
2023-02-04T01:43:54.607Z,5.90
2023-02-04T01:46:21.741Z,5.90
2023-02-04T01:48:48.481Z,6.70
2023-02-04T01:51:16.449Z,5.80
2023-02-04T01:53:43.740Z,5.80
2023-02-04T01:56:14.844Z,5.80
2023-02-04T01:58:41.585Z,5.80
2023-02-04T02:01:31.266Z,5.80
2023-02-04T02:03:57.971Z,5.80
2023-02-04T02:06:24.613Z,5.80
2023-02-04T02:08:51.315Z,5.80
2023-02-04T02:11:17.931Z,5.80
2023-02-04T02:13:44.583Z,5.80
2023-02-04T02:16:11.297Z,5.80
2023-02-04T02:18:37.944Z,5.80
2023-02-04T02:21:06.582Z,5.80
2023-02-04T02:23:45.564Z,6.70
2023-02-04T02:26:13.010Z,5.80
2023-02-04T02:28:39.851Z,5.80
2023-02-04T02:31:06.969Z,5.80
2023-02-04T02:33:33.778Z,5.80
2023-02-04T02:36:00.893Z,5.80
2023-02-04T02:38:27.766Z,5.80
2023-02-04T02:40:54.566Z,5.80
2023-02-04T02:43:22.962Z,5.80
2023-02-04T02:45:50.113Z,7.20
2023-02-04T02:48:17.078Z,5.80
2023-02-04T02:50:44.166Z,5.80
2023-02-04T02:53:12.275Z,5.80
2023-02-04T02:55:39.087Z,5.80
2023-02-04T02:58:06.529Z,5.80
2023-02-04T03:00:33.529Z,5.90
2023-02-04T03:03:03.508Z,5.80
2023-02-04T03:05:32.797Z,5.90
2023-02-04T03:07:59.836Z,5.90
2023-02-04T03:10:26.540Z,5.90
2023-02-04T03:12:53.658Z,5.90
2023-02-04T03:15:20.829Z,5.80
2023-02-04T03:17:47.688Z,7.90
2023-02-04T03:20:15.842Z,5.70
2023-02-04T03:22:42.551Z,5.70
2023-02-04T03:25:09.220Z,5.70
2023-02-04T03:27:36.085Z,5.60
2023-02-04T03:30:02.821Z,5.60
2023-02-04T03:32:29.500Z,5.60
2023-02-04T03:34:56.139Z,5.60
2023-02-04T03:37:22.846Z,5.50
2023-02-04T03:39:49.693Z,5.50
2023-02-04T03:42:17.948Z,5.60
2023-02-04T03:44:44.787Z,5.60
2023-02-04T03:47:11.525Z,5.40
2023-02-04T03:49:38.270Z,5.40
2023-02-04T03:52:05.113Z,5.40
2023-02-04T03:54:31.936Z,5.40
2023-02-04T03:56:58.802Z,6.60
2023-02-04T03:59:25.555Z,6.00
2023-02-04T04:01:52.774Z,5.30
2023-02-04T04:04:19.888Z,5.40
2023-02-04T04:06:46.615Z,6.70
2023-02-04T04:09:13.392Z,7.60
2023-02-04T04:11:40.123Z,7.10
2023-02-04T04:14:06.776Z,7.20
2023-02-04T04:16:33.509Z,7.10
2023-02-04T04:19:00.210Z,7.60
2023-02-04T04:21:26.987Z,6.90
2023-02-04T04:23:53.727Z,8.20
2023-02-04T04:26:20.440Z,7.60
2023-02-04T04:28:47.122Z,6.20
2023-02-04T04:31:14.103Z,6.20
2023-02-04T04:33:40.953Z,8.70
2023-02-04T04:36:07.897Z,8.80
2023-02-04T04:38:34.664Z,5.40
2023-02-04T04:41:01.401Z,7.30
2023-02-04T04:43:28.078Z,6.70
2023-02-04T04:45:54.775Z,7.00
2023-02-04T04:48:21.921Z,7.00
2023-02-04T04:53:21.438Z,5.60
2023-02-04T04:55:48.076Z,5.00
2023-02-04T04:58:14.774Z,5.00
2023-02-04T05:00:41.562Z,4.90
2023-02-04T05:03:08.237Z,5.00
2023-02-04T05:05:39.935Z,4.90
2023-02-04T05:08:13.038Z,4.90
2023-02-04T05:10:40.399Z,4.90
2023-02-04T05:13:07.156Z,4.90
2023-02-04T05:15:33.971Z,4.90
2023-02-04T05:18:00.610Z,4.90
2023-02-04T05:20:27.237Z,4.90
2023-02-04T05:22:55.925Z,4.90
2023-02-04T05:25:22.931Z,4.80
2023-02-04T05:27:49.610Z,4.70
2023-02-04T05:30:16.339Z,4.70
2023-02-04T05:32:42.958Z,6.80
2023-02-04T05:35:09.630Z,4.70
2023-02-04T05:37:36.318Z,4.70
2023-02-04T05:40:03.020Z,4.60
2023-02-04T05:42:29.681Z,7.20
2023-02-04T05:44:56.399Z,4.60
2023-02-04T05:47:22.987Z,4.60
2023-02-04T05:49:49.947Z,4.50
2023-02-04T05:52:16.624Z,5.80
2023-02-04T05:54:43.321Z,4.50
2023-02-04T05:57:09.995Z,4.50
2023-02-04T05:59:36.645Z,4.50
2023-02-04T06:02:03.349Z,6.30
2023-02-04T06:04:30.108Z,6.60
2023-02-04T06:06:56.781Z,4.40
2023-02-04T06:09:23.338Z,4.40
2023-02-04T06:11:50.060Z,4.40
2023-02-04T06:14:16.633Z,4.40
2023-02-04T06:16:43.377Z,4.40
2023-02-04T06:19:10.042Z,4.40
2023-02-04T06:21:36.685Z,4.40
2023-02-04T06:24:05.223Z,4.30
2023-02-04T06:26:32.055Z,4.30
2023-02-04T06:28:58.755Z,4.30
2023-02-04T06:31:25.614Z,4.40
2023-02-04T06:33:52.306Z,4.30
2023-02-04T06:36:18.892Z,4.30
2023-02-04T06:38:45.628Z,4.30
2023-02-04T06:41:12.311Z,4.30
2023-02-04T06:43:39.051Z,4.30
2023-02-04T06:46:05.734Z,4.30
2023-02-04T06:48:32.396Z,4.30
2023-02-04T06:50:59.064Z,4.30
2023-02-04T06:53:25.853Z,6.20
2023-02-04T06:55:52.863Z,4.30
2023-02-04T06:58:19.502Z,5.70
2023-02-04T07:00:46.060Z,4.30
2023-02-04T07:03:12.715Z,4.30
2023-02-04T07:05:39.325Z,4.30
2023-02-04T07:08:05.991Z,4.30
2023-02-04T07:10:33.137Z,4.30
2023-02-04T07:13:00.049Z,4.30
2023-02-04T07:15:26.704Z,4.30
2023-02-04T07:17:54.036Z,4.30
2023-02-04T07:20:20.621Z,4.30
2023-02-04T07:22:47.270Z,4.30
2023-02-04T07:25:16.083Z,4.40
2023-02-04T07:27:42.796Z,3.20
2023-02-04T07:30:10.495Z,4.30
2023-02-04T07:32:37.157Z,4.20
2023-02-04T07:35:04.105Z,4.30
2023-02-04T07:37:30.770Z,4.30
2023-02-04T07:39:57.360Z,4.30
2023-02-04T07:42:24.011Z,4.30
2023-02-04T07:44:50.614Z,4.30
2023-02-04T07:47:17.278Z,4.30
2023-02-04T07:49:43.873Z,4.30
2023-02-04T07:52:10.534Z,4.30
2023-02-04T07:54:37.101Z,4.30
2023-02-04T07:57:03.737Z,4.30
2023-02-04T07:59:30.373Z,7.00
2023-02-04T08:01:57.062Z,4.30
2023-02-04T08:04:23.674Z,4.30
2023-02-04T08:06:50.282Z,4.30
2023-02-04T08:09:16.947Z,4.40
2023-02-04T08:11:43.524Z,4.40
2023-02-04T08:14:10.146Z,4.40
2023-02-04T08:16:36.722Z,4.40
2023-02-04T08:19:03.302Z,4.40
2023-02-04T08:21:29.949Z,4.40
2023-02-04T08:23:56.577Z,4.40
2023-02-04T08:26:23.159Z,4.50
2023-02-04T08:28:49.754Z,4.40
2023-02-04T08:31:16.425Z,6.70
2023-02-04T08:33:43.127Z,4.40
2023-02-04T08:36:09.845Z,4.50
2023-02-04T08:38:36.553Z,4.50
2023-02-04T08:41:03.360Z,4.60
2023-02-04T08:43:30.112Z,4.60
2023-02-04T08:45:56.697Z,4.60
2023-02-04T08:48:23.406Z,4.60
2023-02-04T08:50:50.022Z,4.60
2023-02-04T08:53:16.818Z,4.70
2023-02-04T08:55:43.508Z,4.60
2023-02-04T08:58:10.139Z,4.70
2023-02-04T09:00:36.836Z,4.70
2023-02-04T09:03:03.557Z,4.70
2023-02-04T09:05:30.180Z,4.70
2023-02-04T09:07:56.813Z,4.70
2023-02-04T09:10:23.398Z,4.80
2023-02-04T09:12:50.091Z,4.80
2023-02-04T09:15:16.874Z,4.90
2023-02-04T09:17:44.083Z,4.90
2023-02-04T09:20:10.829Z,5.00
2023-02-04T09:22:37.898Z,4.90
2023-02-04T09:25:04.804Z,5.00
2023-02-04T09:27:31.439Z,5.00
2023-02-04T09:29:58.045Z,5.10
2023-02-04T09:32:24.806Z,5.20
2023-02-04T09:34:51.604Z,5.20
2023-02-04T09:37:18.172Z,5.20
2023-02-04T09:39:44.916Z,5.30
2023-02-04T09:42:14.289Z,5.30
2023-02-04T09:44:41.075Z,5.40
2023-02-04T09:47:10.186Z,5.30
2023-02-04T09:49:37.030Z,5.40
2023-02-04T09:52:03.728Z,5.40
2023-02-04T09:54:30.393Z,5.30
2023-02-04T09:56:57.489Z,5.40
2023-02-04T09:59:24.188Z,5.40
2023-02-04T10:02:01.444Z,5.50
2023-02-04T10:04:28.248Z,5.40
2023-02-04T10:06:56.554Z,5.40
2023-02-04T10:09:23.204Z,5.40
2023-02-04T10:11:49.855Z,5.40
2023-02-04T10:14:18.734Z,5.40
2023-02-04T10:16:50.434Z,5.40
2023-02-04T10:19:17.135Z,5.40
2023-02-04T10:21:44.531Z,5.50
2023-02-04T10:24:18.750Z,5.50
2023-02-04T10:26:45.411Z,5.50
2023-02-04T10:29:17.219Z,5.60
2023-02-04T10:31:45.087Z,5.60
2023-02-04T10:34:20.481Z,5.80
2023-02-04T10:36:51.373Z,5.80
2023-02-04T10:39:22.576Z,5.80
2023-02-04T10:41:56.044Z,5.80
2023-02-04T10:44:27.373Z,5.80
2023-02-04T10:47:08.571Z,5.90
2023-02-04T10:49:35.218Z,5.90
2023-02-04T10:52:03.318Z,6.10
2023-02-04T10:54:35.503Z,5.90
2023-02-04T10:57:05.157Z,6.00
2023-02-04T10:59:31.979Z,5.90
2023-02-04T11:02:00.080Z,5.90
2023-02-04T11:04:26.994Z,6.00
2023-02-04T11:06:54.298Z,5.90
2023-02-04T11:09:21.298Z,7.30
2023-02-04T11:11:49.507Z,7.30
2023-02-04T11:14:23.152Z,5.90
2023-02-04T11:16:49.858Z,5.80
2023-02-04T11:19:30.968Z,5.80
2023-02-04T11:22:04.885Z,5.80
2023-02-04T11:24:33.422Z,7.10
2023-02-04T11:27:07.577Z,6.00
2023-02-04T11:29:36.830Z,6.10
2023-02-04T11:32:05.151Z,6.10
2023-02-04T11:34:32.702Z,6.10
2023-02-04T11:37:02.348Z,6.20
2023-02-04T11:39:34.155Z,6.20
2023-02-04T11:42:01.029Z,6.10
2023-02-04T11:44:27.892Z,6.00
2023-02-04T11:46:58.522Z,6.00
2023-02-04T11:49:26.207Z,5.90
2023-02-04T11:52:03.574Z,7.80
2023-02-04T11:54:30.354Z,6.20
2023-02-04T11:56:59.608Z,6.00
2023-02-04T11:59:26.237Z,6.00
2023-02-04T12:02:03.228Z,6.00
2023-02-04T12:04:29.899Z,5.90
2023-02-04T12:06:57.822Z,5.90
2023-02-04T12:09:26.197Z,5.90
2023-02-04T12:11:53.568Z,6.00
2023-02-04T12:14:20.674Z,6.00
2023-02-04T12:16:48.441Z,7.40
2023-02-04T12:19:15.166Z,6.00
2023-02-04T12:21:42.230Z,6.10
2023-02-04T12:24:08.864Z,6.30
2023-02-04T12:26:35.506Z,6.40
2023-02-04T12:29:03.589Z,6.50
2023-02-04T12:31:30.398Z,6.60
2023-02-04T12:33:57.377Z,6.70
2023-02-04T12:36:24.820Z,6.60
2023-02-04T12:38:51.445Z,6.40
2023-02-04T12:41:19.913Z,6.40
2023-02-04T12:43:46.805Z,6.30
2023-02-04T12:46:13.564Z,6.30
2023-02-04T12:48:41.191Z,6.30
2023-02-04T12:51:08.058Z,6.20
2023-02-04T12:53:34.767Z,6.30
2023-02-04T12:56:01.440Z,6.30
2023-02-04T12:58:28.118Z,6.30
2023-02-04T13:00:54.832Z,6.40
2023-02-04T13:03:22.838Z,6.40
2023-02-04T13:05:49.539Z,6.50
2023-02-04T13:08:16.267Z,6.50
2023-02-04T13:10:43.041Z,6.50
2023-02-04T13:13:09.606Z,6.60
2023-02-04T13:15:36.353Z,6.50
2023-02-04T13:18:03.094Z,6.50
2023-02-04T13:20:29.668Z,6.50
2023-02-04T13:22:56.255Z,6.60
2023-02-04T13:25:22.847Z,6.50
2023-02-04T13:27:49.520Z,6.50
2023-02-04T13:30:16.180Z,6.40
2023-02-04T13:32:43.566Z,6.40
2023-02-04T13:35:10.226Z,6.40
2023-02-04T13:37:38.205Z,7.70
2023-02-04T13:40:09.517Z,6.30
2023-02-04T13:42:36.170Z,6.30
2023-02-04T13:45:03.223Z,6.40
2023-02-04T13:47:29.904Z,6.60
2023-02-04T13:49:56.542Z,6.50
2023-02-04T13:52:23.324Z,6.60
2023-02-04T13:54:50.181Z,6.70
2023-02-04T13:57:17.667Z,6.70
2023-02-04T13:59:44.374Z,7.90
2023-02-04T14:02:11.155Z,6.50
2023-02-04T14:04:37.890Z,6.50
2023-02-04T14:07:04.611Z,7.90
2023-02-04T14:09:31.276Z,6.30
2023-02-04T14:11:57.980Z,8.60
2023-02-04T14:14:24.702Z,6.30
2023-02-04T14:16:51.443Z,6.30
2023-02-04T14:19:18.318Z,6.30
2023-02-04T14:21:46.356Z,6.20
2023-02-04T14:24:13.002Z,6.20
2023-02-04T14:26:39.667Z,6.10
2023-02-04T14:29:07.084Z,6.20
2023-02-04T14:31:34.216Z,6.10
2023-02-04T14:34:00.952Z,6.10
2023-02-04T14:36:27.606Z,6.00
2023-02-04T14:38:54.246Z,6.00
2023-02-04T14:41:21.545Z,5.90
2023-02-04T14:43:48.474Z,5.90
2023-02-04T14:46:15.213Z,5.80
2023-02-04T14:48:41.894Z,5.90
2023-02-04T14:51:08.480Z,5.90
2023-02-04T14:53:35.214Z,5.90
2023-02-04T14:56:01.898Z,6.00
2023-02-04T14:58:28.682Z,6.00
2023-02-04T15:00:55.725Z,6.10
2023-02-04T15:03:22.447Z,6.10
2023-02-04T15:05:49.078Z,8.20
2023-02-04T15:08:15.677Z,6.20
2023-02-04T15:10:42.351Z,6.20
2023-02-04T15:13:09.133Z,6.20
2023-02-04T15:15:35.758Z,6.20
2023-02-04T15:18:02.370Z,6.30
2023-02-04T15:20:28.994Z,6.20
2023-02-04T15:22:56.499Z,6.30
2023-02-04T15:25:23.793Z,6.20
2023-02-04T15:27:50.484Z,6.20
2023-02-04T15:30:17.307Z,6.30
2023-02-04T15:32:46.074Z,6.20
2023-02-04T15:35:13.384Z,6.20
2023-02-04T15:37:39.976Z,6.20
2023-02-04T15:40:06.865Z,6.10
2023-02-04T15:42:33.987Z,6.00
2023-02-04T15:45:00.643Z,7.60
2023-02-04T15:47:27.267Z,5.90
2023-02-04T15:49:53.934Z,5.90
2023-02-04T15:52:25.083Z,5.90
2023-02-04T15:54:52.261Z,5.80
2023-02-04T15:57:18.907Z,5.80
2023-02-04T15:59:45.569Z,5.70
2023-02-04T16:02:12.652Z,5.70
2023-02-04T16:04:40.505Z,6.90
2023-02-04T16:07:08.290Z,7.70
2023-02-04T16:09:35.733Z,5.70
2023-02-04T16:12:02.904Z,5.70
2023-02-04T16:14:29.592Z,5.70
2023-02-04T16:16:56.206Z,5.60
2023-02-04T16:19:22.816Z,5.50
2023-02-04T16:21:49.644Z,5.50
2023-02-04T16:24:18.468Z,5.40
2023-02-04T16:26:45.348Z,5.30
2023-02-04T16:29:11.956Z,5.40
2023-02-04T16:31:38.654Z,5.20
2023-02-04T16:34:05.366Z,6.50
2023-02-04T16:36:32.042Z,5.10
2023-02-04T16:38:59.554Z,5.10
2023-02-04T16:41:26.289Z,5.00
2023-02-04T16:43:52.936Z,5.00
2023-02-04T16:46:19.587Z,5.00
2023-02-04T16:48:46.274Z,5.00
2023-02-04T16:51:12.970Z,4.90
2023-02-04T16:53:39.567Z,4.90
2023-02-04T16:56:06.440Z,4.80
2023-02-04T16:58:33.058Z,4.80
2023-02-04T17:00:59.886Z,4.80
2023-02-04T17:03:28.155Z,4.80
2023-02-04T17:05:54.884Z,4.80
2023-02-04T17:08:21.981Z,4.80
2023-02-04T17:11:07.560Z,4.70
2023-02-04T17:13:34.430Z,4.70
2023-02-04T17:16:01.545Z,4.70
2023-02-04T17:18:29.325Z,4.60
2023-02-04T17:20:56.042Z,4.60
2023-02-04T17:23:22.754Z,4.60
2023-02-04T17:25:49.437Z,4.60
2023-02-04T17:28:16.108Z,4.60
2023-02-04T17:30:42.750Z,4.50
2023-02-04T17:33:09.528Z,6.20
2023-02-04T17:35:36.415Z,4.40
2023-02-04T17:38:03.175Z,5.80
2023-02-04T17:40:30.240Z,4.30
2023-02-04T17:42:57.031Z,4.30
2023-02-04T17:45:24.600Z,4.20
2023-02-04T17:47:51.274Z,4.20
2023-02-04T17:50:17.997Z,4.20
2023-02-04T17:52:44.664Z,4.10
2023-02-04T17:55:22.951Z,4.20
2023-02-04T17:57:49.927Z,4.10
2023-02-04T18:00:18.135Z,4.10
2023-02-04T18:02:45.949Z,4.10
2023-02-04T18:05:14.477Z,4.10
2023-02-04T18:07:43.872Z,4.00
2023-02-04T18:10:21.393Z,4.10
2023-02-04T18:12:48.202Z,4.00
2023-02-04T18:15:23.482Z,4.00
2023-02-04T18:17:50.249Z,3.90
2023-02-04T18:20:18.238Z,3.90
2023-02-04T18:22:45.294Z,5.70
2023-02-04T18:25:16.512Z,3.70
2023-02-04T18:27:43.152Z,3.60
2023-02-04T18:30:19.702Z,3.60
2023-02-04T18:32:46.337Z,3.40
2023-02-04T18:35:29.547Z,3.50
2023-02-04T18:37:56.132Z,3.30
2023-02-04T18:40:27.052Z,3.30
2023-02-04T18:43:15.067Z,3.20
2023-02-04T18:45:41.782Z,3.10
2023-02-04T18:48:20.688Z,3.10
2023-02-04T18:50:48.229Z,3.00
2023-02-04T18:53:15.100Z,2.80
2023-02-04T18:55:49.564Z,2.80
2023-02-04T18:58:22.323Z,2.70
2023-02-04T19:00:54.504Z,2.60
2023-02-04T19:03:21.129Z,2.60
2023-02-04T19:05:51.200Z,2.50
2023-02-04T19:08:22.620Z,2.40
2023-02-04T19:10:50.002Z,2.30
2023-02-04T19:13:29.164Z,2.20
2023-02-04T19:16:16.068Z,2.10
2023-02-04T19:18:42.793Z,2.10
2023-02-04T19:21:23.372Z,2.10
2023-02-04T19:23:50.819Z,2.00
2023-02-04T19:26:27.086Z,1.90
2023-02-04T19:28:54.370Z,1.80
2023-02-04T19:31:21.395Z,1.80
2023-02-04T19:33:50.386Z,1.80
2023-02-04T19:36:33.798Z,1.80
2023-02-04T19:39:02.318Z,1.70
2023-02-04T19:41:43.124Z,1.70
2023-02-04T19:44:12.789Z,1.70
2023-02-04T19:46:40.161Z,1.70
2023-02-04T19:49:33.254Z,4.10
2023-02-04T19:51:59.861Z,1.60
2023-02-04T19:54:37.087Z,1.60
2023-02-04T19:57:08.852Z,1.50
2023-02-04T19:59:36.404Z,1.60
2023-02-04T20:02:19.558Z,1.60
2023-02-04T20:04:47.389Z,1.50
2023-02-04T20:07:19.280Z,1.60
2023-02-04T20:09:46.272Z,1.60
2023-02-04T20:12:16.551Z,1.40
2023-02-04T20:14:43.652Z,1.30
2023-02-04T20:17:15.074Z,1.30
2023-02-04T20:19:42.497Z,1.20
2023-02-04T20:22:18.448Z,1.20
2023-02-04T20:24:46.307Z,1.10
2023-02-04T20:27:19.769Z,1.20
2023-02-04T20:29:46.825Z,1.10
2023-02-04T20:32:21.267Z,1.20
2023-02-04T20:34:47.837Z,1.20
2023-02-04T20:37:19.416Z,1.30
2023-02-04T20:39:46.019Z,1.30
2023-02-04T20:42:27.451Z,1.30
2023-02-04T20:44:54.764Z,1.30
2023-02-04T20:47:22.681Z,1.40
2023-02-04T20:49:55.102Z,1.40
2023-02-04T20:52:54.516Z,1.40
2023-02-04T20:55:28.189Z,2.50
2023-02-04T20:58:13.398Z,1.30
2023-02-04T21:00:40.051Z,1.30
2023-02-04T21:03:12.831Z,1.30
2023-02-04T21:05:39.924Z,1.30
2023-02-04T21:08:25.515Z,1.30
2023-02-04T21:10:52.200Z,1.30
2023-02-04T21:13:18.805Z,1.40
2023-02-04T21:15:45.463Z,1.40
2023-02-04T21:18:12.067Z,1.50
2023-02-04T21:20:38.653Z,1.50
2023-02-04T21:23:05.280Z,1.50
2023-02-04T21:25:32.501Z,1.60
2023-02-04T21:27:59.483Z,1.60
2023-02-04T21:30:30.111Z,1.60
2023-02-04T21:32:57.475Z,1.70
2023-02-04T21:35:24.609Z,1.70
2023-02-04T21:37:51.756Z,1.70
2023-02-04T21:40:21.727Z,1.70
2023-02-04T21:42:49.060Z,1.70
2023-02-04T21:45:17.415Z,1.70
2023-02-04T21:47:44.467Z,1.70
2023-02-04T21:50:11.686Z,1.70
2023-02-04T21:52:38.269Z,1.70
2023-02-04T21:55:05.062Z,1.70
2023-02-04T21:57:32.273Z,1.70
2023-02-04T21:59:58.906Z,1.80
2023-02-04T22:02:25.637Z,1.80
2023-02-04T22:04:52.540Z,1.90
2023-02-04T22:07:19.440Z,1.90
2023-02-04T22:09:48.014Z,1.90
2023-02-04T22:12:14.605Z,1.80
2023-02-04T22:15:00.201Z,1.90
2023-02-04T22:17:26.845Z,2.00
2023-02-04T22:19:53.445Z,2.00
2023-02-04T22:22:20.083Z,2.00
2023-02-04T22:24:47.508Z,2.00
2023-02-04T22:27:14.167Z,2.10
2023-02-04T22:29:40.875Z,2.00
2023-02-04T22:32:07.511Z,2.00
2023-02-04T22:34:34.323Z,1.90
2023-02-04T22:37:00.950Z,1.90
2023-02-04T22:39:27.620Z,1.90
2023-02-04T22:41:54.465Z,1.90
2023-02-04T22:44:21.222Z,1.90
2023-02-04T22:46:47.863Z,1.90
2023-02-04T22:49:14.572Z,1.90
2023-02-04T22:51:41.271Z,1.90
2023-02-04T22:54:09.894Z,1.90
2023-02-04T22:56:36.685Z,1.90
2023-02-04T22:59:03.432Z,2.10
2023-02-04T23:01:30.076Z,2.00
2023-02-04T23:03:56.711Z,3.20
2023-02-04T23:06:23.406Z,1.80
2023-02-04T23:08:50.146Z,1.90
2023-02-04T23:11:18.564Z,1.90
2023-02-04T23:13:45.732Z,1.90
2023-02-04T23:16:12.467Z,1.90
2023-02-04T23:18:39.125Z,2.00
2023-02-04T23:21:05.951Z,2.00
2023-02-04T23:23:32.851Z,2.00
2023-02-04T23:26:00.589Z,3.50
2023-02-04T23:28:27.203Z,2.00
2023-02-04T23:30:53.855Z,2.00
2023-02-04T23:33:20.543Z,2.00
2023-02-04T23:35:47.589Z,2.00
2023-02-04T23:38:14.333Z,2.00
2023-02-04T23:40:41.001Z,2.00
2023-02-04T23:43:09.853Z,2.00
2023-02-04T23:45:37.602Z,2.10
2023-02-04T23:48:04.466Z,2.00
2023-02-04T23:50:31.415Z,2.00
2023-02-04T23:52:58.312Z,2.10
2023-02-04T23:55:25.194Z,2.10
2023-02-04T23:57:52.019Z,2.10
